createdAt,value
2022-08-23T00:02:28.194Z,98.15
2022-08-23T00:05:08.167Z,98.18
2022-08-23T00:07:40.399Z,98.42
2022-08-23T00:10:16.469Z,98.39
2022-08-23T00:12:46.196Z,98.71
2022-08-23T00:15:17.224Z,98.65
2022-08-23T00:17:45.301Z,98.78
2022-08-23T00:20:17.114Z,98.67
2022-08-23T00:22:46.190Z,98.54
2022-08-23T00:25:16.275Z,98.49
2022-08-23T00:27:44.943Z,98.55
2022-08-23T00:30:15.372Z,98.82
2022-08-23T00:32:45.535Z,98.96
2022-08-23T00:35:26.659Z,98.98
2022-08-23T00:38:32.611Z,98.97
2022-08-23T00:40:51.904Z,99.08
2022-08-23T00:44:00.470Z,99.33
2022-08-23T00:47:14.715Z,99.69
2022-08-23T00:50:23.892Z,99.76
2022-08-23T00:53:23.952Z,99.76
2022-08-23T00:55:57.852Z,99.70
2022-08-23T00:58:27.370Z,99.50
2022-08-23T01:00:59.041Z,99.53
2022-08-23T01:03:30.733Z,99.32
2022-08-23T01:06:32.687Z,99.07
2022-08-23T01:09:08.517Z,99.28
2022-08-23T01:12:05.607Z,99.06
2022-08-23T01:14:41.087Z,99.58
2022-08-23T01:17:16.053Z,99.91
2022-08-23T01:19:56.525Z,99.96
2022-08-23T01:22:42.937Z,100.00
2022-08-23T01:25:14.134Z,100.00
2022-08-23T01:27:43.207Z,100.00
2022-08-23T01:30:13.615Z,100.00
2022-08-23T01:32:46.779Z,100.00
2022-08-23T01:35:17.564Z,100.00
2022-08-23T01:37:46.970Z,100.00
2022-08-23T01:40:14.958Z,100.00
2022-08-23T01:42:43.000Z,100.00
2022-08-23T01:45:13.143Z,100.00
2022-08-23T01:47:41.994Z,100.00
2022-08-23T01:50:13.041Z,100.00
2022-08-23T01:52:47.207Z,100.00
2022-08-23T01:55:17.377Z,100.00
2022-08-23T01:57:52.140Z,100.00
2022-08-23T02:00:23.838Z,100.00
2022-08-23T02:02:51.945Z,100.00
2022-08-23T02:05:20.260Z,100.00
2022-08-23T02:07:48.384Z,100.00
2022-08-23T02:10:16.553Z,100.00
2022-08-23T02:12:44.867Z,100.00
2022-08-23T02:15:14.097Z,100.00
2022-08-23T02:17:42.096Z,100.00
2022-08-23T02:20:10.872Z,100.00
2022-08-23T02:22:39.776Z,100.00
2022-08-23T02:25:08.271Z,100.00
2022-08-23T02:27:36.241Z,100.00
2022-08-23T02:30:05.265Z,100.00
2022-08-23T02:32:33.262Z,100.00
2022-08-23T02:35:05.137Z,100.00
2022-08-23T02:37:35.036Z,100.00
2022-08-23T02:40:05.803Z,100.00
2022-08-23T02:42:34.061Z,100.00
2022-08-23T02:45:02.384Z,100.00
2022-08-23T02:47:30.579Z,100.00
2022-08-23T02:49:58.638Z,100.00
2022-08-23T02:52:26.711Z,100.00
2022-08-23T02:54:58.233Z,100.00
2022-08-23T02:57:26.894Z,100.00
2022-08-23T02:59:55.442Z,100.00
2022-08-23T03:02:23.350Z,100.00
2022-08-23T03:04:51.367Z,100.00
2022-08-23T03:07:19.481Z,100.00
2022-08-23T03:09:47.358Z,100.00
2022-08-23T03:12:15.181Z,100.00
2022-08-23T03:14:43.058Z,100.00
2022-08-23T03:17:12.245Z,100.00
2022-08-23T03:19:40.200Z,100.00
2022-08-23T03:22:08.085Z,100.00
2022-08-23T03:24:36.584Z,100.00
2022-08-23T03:27:05.410Z,100.00
2022-08-23T03:29:34.149Z,100.00
2022-08-23T03:32:03.995Z,100.00
2022-08-23T03:34:32.555Z,100.00
2022-08-23T03:37:00.853Z,100.00
2022-08-23T03:39:29.005Z,100.00
2022-08-23T03:41:57.809Z,100.00
2022-08-23T03:44:25.808Z,100.00
2022-08-23T03:46:54.722Z,100.00
2022-08-23T03:49:22.732Z,100.00
2022-08-23T03:51:50.590Z,100.00
2022-08-23T03:54:18.415Z,100.00
2022-08-23T03:57:01.025Z,100.00
2022-08-23T03:59:31.426Z,100.00
2022-08-23T04:02:00.312Z,100.00
2022-08-23T04:04:28.627Z,100.00
2022-08-23T04:06:56.626Z,100.00
2022-08-23T04:09:24.736Z,100.00
2022-08-23T04:11:53.939Z,100.00
2022-08-23T04:14:21.886Z,100.00
2022-08-23T04:16:49.736Z,100.00
2022-08-23T04:19:17.726Z,100.00
2022-08-23T04:21:51.103Z,100.00
2022-08-23T04:24:19.985Z,100.00
2022-08-23T04:26:49.634Z,100.00
2022-08-23T04:29:23.000Z,100.00
2022-08-23T04:32:05.589Z,100.00
2022-08-23T04:34:40.530Z,100.00
2022-08-23T04:37:13.839Z,100.00
2022-08-23T04:40:00.843Z,100.00
2022-08-23T04:42:30.415Z,100.00
2022-08-23T04:44:58.319Z,100.00
2022-08-23T04:47:26.488Z,100.00
2022-08-23T04:49:54.310Z,100.00
2022-08-23T04:52:22.639Z,100.00
2022-08-23T04:54:50.587Z,100.00
2022-08-23T04:57:18.446Z,100.00
2022-08-23T04:59:46.286Z,100.00
2022-08-23T05:02:14.592Z,100.00
2022-08-23T05:04:42.595Z,100.00
2022-08-23T05:07:11.036Z,100.00
2022-08-23T05:09:39.219Z,100.00
2022-08-23T05:12:07.350Z,100.00
2022-08-23T05:14:35.326Z,100.00
2022-08-23T05:17:03.499Z,100.00
2022-08-23T05:19:33.616Z,100.00
2022-08-23T05:22:02.607Z,100.00
2022-08-23T05:24:30.886Z,100.00
2022-08-23T05:26:59.565Z,100.00
2022-08-23T05:29:27.650Z,100.00
2022-08-23T05:31:55.811Z,100.00
2022-08-23T05:34:24.090Z,100.00
2022-08-23T05:36:55.883Z,100.00
2022-08-23T05:39:30.397Z,100.00
2022-08-23T05:42:06.730Z,100.00
2022-08-23T05:44:36.305Z,100.00
2022-08-23T05:47:11.382Z,100.00
2022-08-23T05:49:41.086Z,100.00
2022-08-23T05:52:12.680Z,100.00
2022-08-23T05:54:42.448Z,100.00
2022-08-23T05:57:10.719Z,100.00
2022-08-23T05:59:40.450Z,100.00
2022-08-23T06:02:08.606Z,100.00
2022-08-23T06:04:36.784Z,100.00
2022-08-23T06:07:06.939Z,100.00
2022-08-23T06:09:35.169Z,100.00
2022-08-23T06:12:03.855Z,100.00
2022-08-23T06:14:31.944Z,100.00
2022-08-23T06:17:00.408Z,100.00
2022-08-23T06:19:28.706Z,100.00
2022-08-23T06:21:57.163Z,100.00
2022-08-23T06:24:26.885Z,100.00
2022-08-23T06:26:55.056Z,100.00
2022-08-23T06:29:23.155Z,100.00
2022-08-23T06:31:53.345Z,100.00
2022-08-23T06:34:33.815Z,100.00
2022-08-23T06:37:08.689Z,100.00
2022-08-23T06:39:38.446Z,100.00
2022-08-23T06:42:34.823Z,100.00
2022-08-23T06:44:59.185Z,100.00
2022-08-23T06:47:27.452Z,100.00
2022-08-23T06:49:58.137Z,100.00
2022-08-23T06:52:27.756Z,100.00
2022-08-23T06:54:55.913Z,100.00
2022-08-23T06:57:25.855Z,99.90
2022-08-23T06:59:53.909Z,99.80
2022-08-23T07:02:21.996Z,99.18
2022-08-23T07:04:54.317Z,98.32
2022-08-23T07:07:22.678Z,97.75
2022-08-23T07:09:50.680Z,97.10
2022-08-23T07:12:20.077Z,96.43
2022-08-23T07:14:48.234Z,95.91
2022-08-23T07:17:16.241Z,95.41
2022-08-23T07:19:44.280Z,94.25
2022-08-23T07:22:12.157Z,93.09
2022-08-23T07:24:40.049Z,91.65
2022-08-23T07:27:09.740Z,91.17
2022-08-23T07:29:39.844Z,90.77
2022-08-23T07:32:09.117Z,90.05
2022-08-23T07:34:37.685Z,88.15
2022-08-23T07:37:15.533Z,87.16
2022-08-23T07:39:44.684Z,86.78
2022-08-23T07:42:23.652Z,86.34
2022-08-23T07:44:53.592Z,86.10
2022-08-23T07:47:22.646Z,86.00
2022-08-23T07:49:51.212Z,84.75
2022-08-23T07:52:19.120Z,83.83
2022-08-23T07:54:48.478Z,83.99
2022-08-23T07:57:19.192Z,82.73
2022-08-23T07:59:47.909Z,81.61
2022-08-23T08:02:15.939Z,80.29
2022-08-23T08:04:44.519Z,78.88
2022-08-23T08:07:21.171Z,77.13
2022-08-23T08:09:49.730Z,76.44
2022-08-23T08:12:17.917Z,74.97
2022-08-23T08:14:48.563Z,74.14
2022-08-23T08:17:18.471Z,73.43
2022-08-23T08:19:46.691Z,72.72
2022-08-23T08:22:14.650Z,72.95
2022-08-23T08:24:44.145Z,74.55
2022-08-23T08:27:12.472Z,75.55
2022-08-23T08:29:42.174Z,76.99
2022-08-23T08:32:13.846Z,77.88
2022-08-23T08:34:42.736Z,78.85
2022-08-23T08:37:11.505Z,79.41
2022-08-23T08:39:45.872Z,79.76
2022-08-23T08:42:20.265Z,79.21
2022-08-23T08:45:20.305Z,78.73
2022-08-23T08:48:02.020Z,77.65
2022-08-23T08:50:43.428Z,77.08
2022-08-23T08:53:28.755Z,76.31
2022-08-23T08:56:32.194Z,76.41
2022-08-23T08:59:06.645Z,76.81
2022-08-23T09:01:38.215Z,76.26
2022-08-23T09:04:07.497Z,76.21
2022-08-23T09:06:58.985Z,75.46
2022-08-23T09:09:50.915Z,74.82
2022-08-23T09:12:51.505Z,74.70
2022-08-23T09:15:24.877Z,74.45
2022-08-23T09:17:57.633Z,74.38
2022-08-23T09:20:32.987Z,74.17
2022-08-23T09:23:22.016Z,73.97
2022-08-23T09:26:03.541Z,73.46
2022-08-23T09:28:37.157Z,72.95
2022-08-23T09:31:08.221Z,71.40
2022-08-23T09:33:42.971Z,70.14
2022-08-23T09:36:20.919Z,68.41
2022-08-23T09:38:58.111Z,66.55
2022-08-23T09:41:32.936Z,63.32
2022-08-23T09:44:02.769Z,63.36
2022-08-23T09:46:36.224Z,59.84
2022-08-23T09:49:28.201Z,58.85
2022-08-23T09:52:01.122Z,58.10
2022-08-23T09:54:37.672Z,57.73
2022-08-23T09:57:13.986Z,56.29
2022-08-23T09:59:47.811Z,56.26
2022-08-23T10:02:21.825Z,57.53
2022-08-23T10:04:52.542Z,58.73
2022-08-23T10:07:23.439Z,58.74
2022-08-23T10:09:51.492Z,59.15
2022-08-23T10:12:19.506Z,52.52
2022-08-23T10:14:47.965Z,53.14
2022-08-23T10:17:47.879Z,54.08
2022-08-23T10:20:22.448Z,51.42
2022-08-23T10:23:04.927Z,49.73
2022-08-23T10:25:49.555Z,47.17
2022-08-23T10:29:01.567Z,46.02
2022-08-23T10:31:58.968Z,45.41
2022-08-23T10:35:09.075Z,46.32
2022-08-23T10:38:13.089Z,43.42
2022-08-23T10:41:06.628Z,42.61
2022-08-23T10:44:09.336Z,40.29
2022-08-23T10:46:58.110Z,39.85
2022-08-23T10:49:28.836Z,41.22
2022-08-23T10:51:59.974Z,38.50
2022-08-23T10:54:47.428Z,38.16
2022-08-23T10:57:20.930Z,37.47
2022-08-23T10:59:52.170Z,36.81
2022-08-23T11:02:49.028Z,35.59
2022-08-23T11:05:27.999Z,34.64
2022-08-23T11:08:09.195Z,33.45
2022-08-23T11:10:39.845Z,33.56
2022-08-23T11:13:13.422Z,34.38
2022-08-23T11:16:03.665Z,34.07
2022-08-23T11:18:35.746Z,34.40
2022-08-23T11:21:05.555Z,35.90
2022-08-23T11:23:59.506Z,36.76
2022-08-23T11:26:27.622Z,36.42
2022-08-23T11:29:07.623Z,37.27
2022-08-23T11:31:45.218Z,35.53
2022-08-23T11:34:29.378Z,34.68
2022-08-23T11:37:21.144Z,35.24
2022-08-23T11:39:58.212Z,37.30
2022-08-23T11:42:38.249Z,37.03
2022-08-23T11:45:28.080Z,36.74
2022-08-23T11:48:22.945Z,37.24
2022-08-23T11:50:55.694Z,35.93
2022-08-23T11:53:47.923Z,34.84
2022-08-23T11:56:16.477Z,34.26
2022-08-23T11:59:03.583Z,33.99
2022-08-23T12:01:47.172Z,34.61
2022-08-23T12:04:37.655Z,35.89
2022-08-23T12:07:13.196Z,36.42
2022-08-23T12:09:44.208Z,37.61
2022-08-23T12:12:25.610Z,39.31
2022-08-23T12:15:02.239Z,37.66
2022-08-23T12:17:34.144Z,37.26
2022-08-23T12:20:22.795Z,36.18
2022-08-23T12:22:52.964Z,35.67
2022-08-23T12:25:22.810Z,36.73
2022-08-23T12:27:57.816Z,37.29
2022-08-23T12:30:46.991Z,36.36
2022-08-23T12:33:42.288Z,35.77
2022-08-23T12:36:31.917Z,36.78
2022-08-23T12:39:20.411Z,36.00
2022-08-23T12:41:48.725Z,34.93
2022-08-23T12:44:21.997Z,34.47
2022-08-23T12:46:51.435Z,33.84
2022-08-23T12:49:32.573Z,32.98
2022-08-23T12:52:06.559Z,31.59
2022-08-23T12:54:49.979Z,30.60
2022-08-23T12:57:22.077Z,30.34
2022-08-23T13:00:17.299Z,29.96
2022-08-23T13:03:10.501Z,28.99
2022-08-23T13:06:07.550Z,31.73
2022-08-23T13:08:51.049Z,32.89
2022-08-23T13:11:22.874Z,32.57
2022-08-23T13:13:51.119Z,32.26
2022-08-23T13:16:28.487Z,32.31
2022-08-23T13:19:14.868Z,32.54
2022-08-23T13:21:43.169Z,32.91
2022-08-23T13:24:38.313Z,32.43
2022-08-23T13:27:13.998Z,31.49
2022-08-23T13:29:55.279Z,30.56
2022-08-23T13:32:28.333Z,30.09
2022-08-23T13:35:34.103Z,30.23
2022-08-23T13:38:08.308Z,29.66
2022-08-23T13:41:14.098Z,29.49
2022-08-23T13:43:45.184Z,30.37
2022-08-23T13:46:23.174Z,30.23
2022-08-23T13:48:57.276Z,30.25
2022-08-23T13:51:37.078Z,29.97
2022-08-23T13:54:12.022Z,29.69
2022-08-23T13:56:49.817Z,30.16
2022-08-23T13:59:39.753Z,30.37
2022-08-23T14:02:14.625Z,31.44
2022-08-23T14:04:43.044Z,31.69
2022-08-23T14:07:12.609Z,30.69
2022-08-23T14:09:41.678Z,30.42
2022-08-23T14:12:23.090Z,29.73
2022-08-23T14:14:51.518Z,29.35
2022-08-23T14:17:20.560Z,29.14
2022-08-23T14:22:39.051Z,31.95
2022-08-23T14:25:07.995Z,33.60
2022-08-23T14:27:38.714Z,35.46
2022-08-23T14:30:08.737Z,36.05
2022-08-23T14:32:38.878Z,37.40
2022-08-23T14:35:08.504Z,38.66
2022-08-23T14:40:29.895Z,40.48
2022-08-23T14:42:58.935Z,41.09
2022-08-23T14:45:27.638Z,41.93
2022-08-23T14:47:55.631Z,41.87
2022-08-23T14:50:23.582Z,42.29
2022-08-23T14:52:51.976Z,43.37
2022-08-23T14:55:24.385Z,44.04
2022-08-23T14:57:53.055Z,44.84
2022-08-23T15:00:21.253Z,45.31
2022-08-23T15:02:50.458Z,45.70
2022-08-23T15:05:19.675Z,46.26
2022-08-23T15:07:47.638Z,46.58
2022-08-23T15:13:27.359Z,48.31
2022-08-23T15:15:54.174Z,49.26
2022-08-23T15:18:22.925Z,49.09
2022-08-23T15:20:52.400Z,49.68
2022-08-23T15:23:21.361Z,48.96
2022-08-23T15:25:49.896Z,49.36
2022-08-23T15:28:21.399Z,50.62
2022-08-23T15:30:51.654Z,51.30
2022-08-23T15:33:24.709Z,52.43
2022-08-23T15:36:01.117Z,53.02
2022-08-23T15:38:31.677Z,53.11
2022-08-23T15:41:00.868Z,52.82
2022-08-23T15:43:34.168Z,53.00
2022-08-23T15:46:16.319Z,53.82
2022-08-23T15:48:53.651Z,54.71
2022-08-23T15:51:21.958Z,55.54
2022-08-23T15:53:50.144Z,56.95
2022-08-23T15:56:27.505Z,57.18
2022-08-23T15:58:56.196Z,57.99
2022-08-23T16:01:25.967Z,58.59
2022-08-23T16:03:54.526Z,58.60
2022-08-23T16:06:22.835Z,58.91
2022-08-23T16:08:53.035Z,58.61
2022-08-23T16:11:24.369Z,58.25
2022-08-23T16:13:55.764Z,58.82
2022-08-23T16:16:29.631Z,59.67
2022-08-23T16:18:59.445Z,60.63
2022-08-23T16:21:30.590Z,61.33
2022-08-23T16:23:59.938Z,61.46
2022-08-23T16:26:34.620Z,61.72
2022-08-23T16:29:07.289Z,62.25
2022-08-23T16:31:39.113Z,63.16
2022-08-23T16:34:12.135Z,64.11
2022-08-23T16:36:43.645Z,64.82
2022-08-23T16:39:12.888Z,64.39
2022-08-23T16:41:40.970Z,64.05
2022-08-23T16:44:08.984Z,64.11
2022-08-23T16:46:37.435Z,64.51
2022-08-23T16:49:05.350Z,65.22
2022-08-23T16:51:33.190Z,65.02
2022-08-23T16:54:02.209Z,65.52
2022-08-23T16:56:32.465Z,65.72
2022-08-23T16:59:00.514Z,66.02
2022-08-23T17:01:29.699Z,66.23
2022-08-23T17:03:57.864Z,66.97
2022-08-23T17:06:25.898Z,67.36
2022-08-23T17:08:54.461Z,67.18
2022-08-23T17:11:22.658Z,67.16
2022-08-23T17:13:53.351Z,67.27
2022-08-23T17:16:22.615Z,67.57
2022-08-23T17:18:51.291Z,67.77
2022-08-23T17:21:22.183Z,68.08
2022-08-23T17:23:50.195Z,67.94
2022-08-23T17:26:18.714Z,68.27
2022-08-23T17:28:46.970Z,68.37
2022-08-23T17:31:16.338Z,68.31
2022-08-23T17:33:44.315Z,68.79
2022-08-23T17:36:32.798Z,69.58
2022-08-23T17:39:02.525Z,69.57
2022-08-23T17:41:30.525Z,70.01
2022-08-23T17:44:07.416Z,69.88
2022-08-23T17:46:37.414Z,69.44
2022-08-23T17:49:06.110Z,68.87
2022-08-23T17:51:36.835Z,68.90
2022-08-23T17:54:05.724Z,68.80
2022-08-23T17:56:33.715Z,69.05
2022-08-23T17:59:01.633Z,69.15
2022-08-23T18:01:30.832Z,69.20
2022-08-23T18:03:59.096Z,69.88
2022-08-23T18:06:28.544Z,70.24
2022-08-23T18:08:56.526Z,70.54
2022-08-23T18:11:25.647Z,71.01
2022-08-23T18:13:53.706Z,70.87
2022-08-23T18:16:22.196Z,70.99
2022-08-23T18:18:50.257Z,70.93
2022-08-23T18:21:19.705Z,71.28
2022-08-23T18:23:48.194Z,71.47
2022-08-23T18:26:34.917Z,71.69
2022-08-23T18:29:03.731Z,71.82
2022-08-23T18:31:32.644Z,71.95
2022-08-23T18:34:01.430Z,72.05
2022-08-23T18:36:30.115Z,72.39
2022-08-23T18:38:58.528Z,72.90
2022-08-23T18:41:26.710Z,73.43
2022-08-23T18:43:54.732Z,73.88
2022-08-23T18:46:23.504Z,74.33
2022-08-23T18:48:53.557Z,74.45
2022-08-23T18:51:22.829Z,74.74
2022-08-23T18:53:50.815Z,74.80
2022-08-23T18:56:19.295Z,75.15
2022-08-23T18:58:48.279Z,75.91
2022-08-23T19:01:39.810Z,76.48
2022-08-23T19:04:10.834Z,76.71
2022-08-23T19:06:40.641Z,77.13
2022-08-23T19:09:12.919Z,77.35
2022-08-23T19:11:42.844Z,77.70
2022-08-23T19:14:12.854Z,77.75
2022-08-23T19:16:47.236Z,77.96
2022-08-23T19:19:19.444Z,78.15
2022-08-23T19:21:49.439Z,78.19
2022-08-23T19:24:24.209Z,78.44
2022-08-23T19:26:52.756Z,78.52
2022-08-23T19:29:21.978Z,78.06
2022-08-23T19:31:50.500Z,78.42
2022-08-23T19:34:20.833Z,78.45
2022-08-23T19:36:56.720Z,78.98
2022-08-23T19:39:29.918Z,79.13
2022-08-23T19:41:58.397Z,79.53
2022-08-23T19:44:28.256Z,79.37
2022-08-23T19:46:57.036Z,79.40
2022-08-23T19:49:25.059Z,79.77
2022-08-23T19:51:53.115Z,80.24
2022-08-23T19:54:21.067Z,80.07
2022-08-23T19:56:54.924Z,79.53
2022-08-23T19:59:27.994Z,79.64
2022-08-23T20:01:58.265Z,80.03
2022-08-23T20:04:29.619Z,79.97
2022-08-23T20:06:59.712Z,79.66
2022-08-23T20:09:29.364Z,79.98
2022-08-23T20:11:58.301Z,79.97
2022-08-23T20:14:28.156Z,80.06
2022-08-23T20:16:57.028Z,80.45
2022-08-23T20:19:25.714Z,80.36
2022-08-23T20:22:16.894Z,80.52
2022-08-23T20:24:53.271Z,80.59
2022-08-23T20:27:30.646Z,80.93
2022-08-23T20:30:01.605Z,81.00
2022-08-23T20:32:31.397Z,81.03
2022-08-23T20:35:04.875Z,81.20
2022-08-23T20:37:33.120Z,81.41
2022-08-23T20:40:01.365Z,81.27
2022-08-23T20:42:29.588Z,81.59
2022-08-23T20:44:57.637Z,81.62
2022-08-23T20:47:25.735Z,81.71
2022-08-23T20:49:53.724Z,82.02
2022-08-23T20:52:21.857Z,82.66
2022-08-23T20:54:49.775Z,83.31
2022-08-23T20:57:18.313Z,85.11
2022-08-23T20:59:46.595Z,85.72
2022-08-23T21:02:14.673Z,86.04
2022-08-23T21:04:42.611Z,86.32
2022-08-23T21:07:11.875Z,86.66
2022-08-23T21:09:40.045Z,86.89
2022-08-23T21:12:08.139Z,87.13
2022-08-23T21:14:36.404Z,87.52
2022-08-23T21:17:04.256Z,87.64
2022-08-23T21:19:32.600Z,87.67
2022-08-23T21:22:01.269Z,87.89
2022-08-23T21:24:29.482Z,88.28
2022-08-23T21:26:57.674Z,88.55
2022-08-23T21:29:25.598Z,88.65
2022-08-23T21:31:53.899Z,88.79
2022-08-23T21:34:21.951Z,88.82
2022-08-23T21:36:51.577Z,89.20
2022-08-23T21:39:19.579Z,89.30
2022-08-23T21:41:51.174Z,89.61
2022-08-23T21:44:21.430Z,89.95
2022-08-23T21:46:49.504Z,90.12
2022-08-23T21:49:18.454Z,90.33
2022-08-23T21:51:47.310Z,90.47
2022-08-23T21:54:17.885Z,90.88
2022-08-23T21:56:46.539Z,91.19
2022-08-23T21:59:17.447Z,91.68
2022-08-23T22:01:46.122Z,92.28
2022-08-23T22:04:16.051Z,92.63
2022-08-23T22:06:46.989Z,92.79
2022-08-23T22:09:18.682Z,93.00
2022-08-23T22:11:48.973Z,93.18
2022-08-23T22:14:22.322Z,93.44
2022-08-23T22:16:55.049Z,93.52
2022-08-23T22:19:23.668Z,93.74
2022-08-23T22:21:52.921Z,93.85
2022-08-23T22:24:25.531Z,93.81
2022-08-23T22:26:55.784Z,94.09
2022-08-23T22:29:24.235Z,94.21
2022-08-23T22:31:52.738Z,94.34
2022-08-23T22:34:20.717Z,94.11
2022-08-23T22:36:52.441Z,94.41
2022-08-23T22:39:23.157Z,94.36
2022-08-23T22:41:51.374Z,94.58
2022-08-23T22:44:19.463Z,94.62
2022-08-23T22:46:47.790Z,94.97
2022-08-23T22:49:16.119Z,95.02
2022-08-23T22:51:44.724Z,95.24
2022-08-23T22:54:15.050Z,95.47
2022-08-23T22:56:46.895Z,95.45
2022-08-23T22:59:16.286Z,95.51
2022-08-23T23:01:52.007Z,95.74
2022-08-23T23:04:22.669Z,95.76
2022-08-23T23:06:52.087Z,95.98
2022-08-23T23:09:20.033Z,96.11
2022-08-23T23:11:48.950Z,96.23
2022-08-23T23:14:18.995Z,96.35
2022-08-23T23:16:49.714Z,96.62
2022-08-23T23:19:40.067Z,96.79
2022-08-23T23:22:08.861Z,96.79
2022-08-23T23:24:39.140Z,96.75
2022-08-23T23:27:07.960Z,96.80
2022-08-23T23:29:36.210Z,97.07
2022-08-23T23:32:05.200Z,97.26
2022-08-23T23:34:33.186Z,97.27
2022-08-23T23:37:01.126Z,97.47
2022-08-23T23:39:29.004Z,97.73
2022-08-23T23:41:57.396Z,97.85
2022-08-23T23:44:31.528Z,97.81
2022-08-23T23:47:01.703Z,97.67
2022-08-23T23:49:32.440Z,97.69
2022-08-23T23:52:04.841Z,98.00
2022-08-23T23:54:34.136Z,98.08
2022-08-23T23:57:04.519Z,98.31
2022-08-23T23:59:32.804Z,98.52
